sensor_id;sensor_type;location;lat;lon;timestamp;P1;durP1;ratioP1;P2;durP2;ratioP2
9188;SDS011;34313;50.780;6.084;2022-07-05T00:02:05;4.80;;;3.63;;
9188;SDS011;34313;50.780;6.084;2022-07-05T00:04:30;4.30;;;3.83;;
9188;SDS011;34313;50.780;6.084;2022-07-05T00:06:56;4.80;;;4.13;;
9188;SDS011;34313;50.780;6.084;2022-07-05T00:09:40;4.90;;;3.83;;
9188;SDS011;34313;50.780;6.084;2022-07-05T00:12:06;5.47;;;4.00;;
9188;SDS011;34313;50.780;6.084;2022-07-05T00:14:32;7.40;;;3.63;;
9188;SDS011;34313;50.780;6.084;2022-07-05T00:16:57;7.27;;;4.00;;
9188;SDS011;34313;50.780;6.084;2022-07-05T00:19:23;4.37;;;3.97;;
9188;SDS011;34313;50.780;6.084;2022-07-05T00:21:48;4.90;;;3.80;;
9188;SDS011;34313;50.780;6.084;2022-07-05T00:24:14;4.23;;;3.33;;
9188;SDS011;34313;50.780;6.084;2022-07-05T00:26:39;10.53;;;3.40;;
9188;SDS011;34313;50.780;6.084;2022-07-05T00:29:04;6.33;;;3.70;;
9188;SDS011;34313;50.780;6.084;2022-07-05T00:31:30;4.70;;;3.40;;
9188;SDS011;34313;50.780;6.084;2022-07-05T00:33:55;8.10;;;3.70;;
9188;SDS011;34313;50.780;6.084;2022-07-05T00:36:21;4.87;;;3.90;;
9188;SDS011;34313;50.780;6.084;2022-07-05T00:38:46;6.07;;;4.70;;
9188;SDS011;34313;50.780;6.084;2022-07-05T00:41:11;6.53;;;4.23;;
9188;SDS011;34313;50.780;6.084;2022-07-05T00:43:37;5.40;;;3.97;;
9188;SDS011;34313;50.780;6.084;2022-07-05T00:46:02;5.70;;;3.70;;
9188;SDS011;34313;50.780;6.084;2022-07-05T00:48:28;6.00;;;3.70;;
9188;SDS011;34313;50.780;6.084;2022-07-05T00:50:53;5.27;;;3.90;;
9188;SDS011;34313;50.780;6.084;2022-07-05T00:53:19;5.60;;;3.70;;
9188;SDS011;34313;50.780;6.084;2022-07-05T00:55:44;6.83;;;3.80;;
9188;SDS011;34313;50.780;6.084;2022-07-05T00:58:10;6.33;;;3.73;;
9188;SDS011;34313;50.780;6.084;2022-07-05T01:00:36;7.13;;;3.47;;
9188;SDS011;34313;50.780;6.084;2022-07-05T01:03:02;10.63;;;4.10;;
9188;SDS011;34313;50.780;6.084;2022-07-05T01:05:28;3.80;;;3.50;;
9188;SDS011;34313;50.780;6.084;2022-07-05T01:07:54;5.97;;;3.70;;
9188;SDS011;34313;50.780;6.084;2022-07-05T01:10:21;3.90;;;3.50;;
9188;SDS011;34313;50.780;6.084;2022-07-05T01:12:46;5.13;;;4.00;;
9188;SDS011;34313;50.780;6.084;2022-07-05T01:15:12;5.70;;;3.67;;
9188;SDS011;34313;50.780;6.084;2022-07-05T01:17:38;4.17;;;3.67;;
9188;SDS011;34313;50.780;6.084;2022-07-05T01:20:04;5.93;;;4.10;;
9188;SDS011;34313;50.780;6.084;2022-07-05T01:22:32;5.70;;;3.83;;
9188;SDS011;34313;50.780;6.084;2022-07-05T01:25:19;8.00;;;4.20;;
9188;SDS011;34313;50.780;6.084;2022-07-05T01:27:46;5.40;;;4.00;;
9188;SDS011;34313;50.780;6.084;2022-07-05T01:30:13;9.73;;;4.50;;
9188;SDS011;34313;50.780;6.084;2022-07-05T01:32:39;4.77;;;3.70;;
9188;SDS011;34313;50.780;6.084;2022-07-05T01:35:05;5.53;;;4.07;;
9188;SDS011;34313;50.780;6.084;2022-07-05T01:37:32;7.67;;;3.10;;
9188;SDS011;34313;50.780;6.084;2022-07-05T01:39:57;6.87;;;4.00;;
9188;SDS011;34313;50.780;6.084;2022-07-05T01:42:23;5.70;;;3.77;;
9188;SDS011;34313;50.780;6.084;2022-07-05T01:44:49;7.33;;;4.20;;
9188;SDS011;34313;50.780;6.084;2022-07-05T01:47:14;4.00;;;3.70;;
9188;SDS011;34313;50.780;6.084;2022-07-05T01:49:43;5.33;;;3.80;;
9188;SDS011;34313;50.780;6.084;2022-07-05T01:52:11;4.20;;;3.50;;
9188;SDS011;34313;50.780;6.084;2022-07-05T01:54:38;6.93;;;4.47;;
9188;SDS011;34313;50.780;6.084;2022-07-05T01:57:04;6.77;;;4.20;;
9188;SDS011;34313;50.780;6.084;2022-07-05T01:59:31;4.57;;;4.00;;
9188;SDS011;34313;50.780;6.084;2022-07-05T02:02:01;6.60;;;4.67;;
9188;SDS011;34313;50.780;6.084;2022-07-05T02:04:28;6.87;;;4.00;;
9188;SDS011;34313;50.780;6.084;2022-07-05T02:06:54;5.43;;;3.87;;
9188;SDS011;34313;50.780;6.084;2022-07-05T02:09:19;5.00;;;3.67;;
9188;SDS011;34313;50.780;6.084;2022-07-05T02:11:45;6.83;;;4.03;;
9188;SDS011;34313;50.780;6.084;2022-07-05T02:14:10;6.10;;;3.47;;
9188;SDS011;34313;50.780;6.084;2022-07-05T02:16:37;3.93;;;3.53;;
9188;SDS011;34313;50.780;6.084;2022-07-05T02:19:03;6.10;;;4.30;;
9188;SDS011;34313;50.780;6.084;2022-07-05T02:21:29;5.43;;;4.20;;
9188;SDS011;34313;50.780;6.084;2022-07-05T02:23:54;7.07;;;4.27;;
9188;SDS011;34313;50.780;6.084;2022-07-05T02:26:20;5.53;;;4.53;;
9188;SDS011;34313;50.780;6.084;2022-07-05T02:28:45;7.03;;;4.80;;
9188;SDS011;34313;50.780;6.084;2022-07-05T02:31:11;4.63;;;4.23;;
9188;SDS011;34313;50.780;6.084;2022-07-05T02:33:37;5.07;;;4.20;;
9188;SDS011;34313;50.780;6.084;2022-07-05T02:36:06;5.00;;;4.37;;
9188;SDS011;34313;50.780;6.084;2022-07-05T02:38:36;5.93;;;4.03;;
9188;SDS011;34313;50.780;6.084;2022-07-05T02:41:05;5.00;;;3.90;;
9188;SDS011;34313;50.780;6.084;2022-07-05T02:43:31;6.00;;;4.53;;
9188;SDS011;34313;50.780;6.084;2022-07-05T02:45:58;8.30;;;4.70;;
9188;SDS011;34313;50.780;6.084;2022-07-05T02:48:24;9.00;;;4.77;;
9188;SDS011;34313;50.780;6.084;2022-07-05T02:50:49;5.03;;;4.27;;
9188;SDS011;34313;50.780;6.084;2022-07-05T02:53:15;4.93;;;4.43;;
9188;SDS011;34313;50.780;6.084;2022-07-05T02:55:40;5.03;;;4.43;;
9188;SDS011;34313;50.780;6.084;2022-07-05T02:58:06;5.10;;;3.87;;
9188;SDS011;34313;50.780;6.084;2022-07-05T03:00:31;5.47;;;4.97;;
9188;SDS011;34313;50.780;6.084;2022-07-05T03:02:57;10.10;;;4.60;;
9188;SDS011;34313;50.780;6.084;2022-07-05T03:05:22;4.37;;;3.90;;
9188;SDS011;34313;50.780;6.084;2022-07-05T03:07:48;8.73;;;5.20;;
9188;SDS011;34313;50.780;6.084;2022-07-05T03:10:13;6.37;;;5.07;;
9188;SDS011;34313;50.780;6.084;2022-07-05T03:12:38;6.60;;;5.40;;
9188;SDS011;34313;50.780;6.084;2022-07-05T03:15:04;7.40;;;5.53;;
9188;SDS011;34313;50.780;6.084;2022-07-05T03:17:30;7.60;;;6.30;;
9188;SDS011;34313;50.780;6.084;2022-07-05T03:19:55;12.53;;;5.60;;
9188;SDS011;34313;50.780;6.084;2022-07-05T03:22:21;8.00;;;5.50;;
9188;SDS011;34313;50.780;6.084;2022-07-05T03:24:46;6.53;;;5.90;;
9188;SDS011;34313;50.780;6.084;2022-07-05T03:27:11;6.73;;;5.30;;
9188;SDS011;34313;50.780;6.084;2022-07-05T03:29:37;7.27;;;5.87;;
9188;SDS011;34313;50.780;6.084;2022-07-05T03:32:02;10.13;;;5.60;;
9188;SDS011;34313;50.780;6.084;2022-07-05T03:34:28;7.27;;;6.23;;
9188;SDS011;34313;50.780;6.084;2022-07-05T03:36:53;6.57;;;5.97;;
9188;SDS011;34313;50.780;6.084;2022-07-05T03:39:19;7.80;;;5.27;;
9188;SDS011;34313;50.780;6.084;2022-07-05T03:41:44;7.27;;;5.63;;
9188;SDS011;34313;50.780;6.084;2022-07-05T03:44:09;6.67;;;5.20;;
9188;SDS011;34313;50.780;6.084;2022-07-05T03:46:35;5.93;;;4.97;;
9188;SDS011;34313;50.780;6.084;2022-07-05T03:49:00;5.27;;;4.77;;
9188;SDS011;34313;50.780;6.084;2022-07-05T03:51:25;6.40;;;4.13;;
9188;SDS011;34313;50.780;6.084;2022-07-05T03:53:51;6.47;;;4.47;;
9188;SDS011;34313;50.780;6.084;2022-07-05T03:56:16;5.87;;;5.37;;
9188;SDS011;34313;50.780;6.084;2022-07-05T03:58:46;6.63;;;4.57;;
9188;SDS011;34313;50.780;6.084;2022-07-05T04:01:12;5.73;;;5.13;;
9188;SDS011;34313;50.780;6.084;2022-07-05T04:03:38;7.60;;;4.37;;
9188;SDS011;34313;50.780;6.084;2022-07-05T04:06:03;5.17;;;4.50;;
9188;SDS011;34313;50.780;6.084;2022-07-05T04:08:29;4.40;;;4.00;;
9188;SDS011;34313;50.780;6.084;2022-07-05T04:10:54;5.17;;;4.67;;
9188;SDS011;34313;50.780;6.084;2022-07-05T04:13:19;8.70;;;5.50;;
9188;SDS011;34313;50.780;6.084;2022-07-05T04:15:45;6.37;;;4.83;;
9188;SDS011;34313;50.780;6.084;2022-07-05T04:18:10;5.90;;;5.17;;
9188;SDS011;34313;50.780;6.084;2022-07-05T04:20:36;5.27;;;4.37;;
9188;SDS011;34313;50.780;6.084;2022-07-05T04:23:01;5.93;;;4.03;;
9188;SDS011;34313;50.780;6.084;2022-07-05T04:25:26;5.40;;;4.63;;
9188;SDS011;34313;50.780;6.084;2022-07-05T04:27:53;8.03;;;4.80;;
9188;SDS011;34313;50.780;6.084;2022-07-05T04:30:20;6.07;;;4.60;;
9188;SDS011;34313;50.780;6.084;2022-07-05T04:32:47;8.30;;;4.70;;
9188;SDS011;34313;50.780;6.084;2022-07-05T04:35:12;4.43;;;4.00;;
9188;SDS011;34313;50.780;6.084;2022-07-05T04:37:38;7.03;;;4.63;;
9188;SDS011;34313;50.780;6.084;2022-07-05T04:40:04;5.53;;;3.50;;
9188;SDS011;34313;50.780;6.084;2022-07-05T04:42:31;5.90;;;4.50;;
9188;SDS011;34313;50.780;6.084;2022-07-05T04:44:57;5.07;;;4.57;;
9188;SDS011;34313;50.780;6.084;2022-07-05T04:47:22;5.23;;;4.10;;
9188;SDS011;34313;50.780;6.084;2022-07-05T04:49:48;5.80;;;4.23;;
9188;SDS011;34313;50.780;6.084;2022-07-05T04:52:13;7.10;;;5.07;;
9188;SDS011;34313;50.780;6.084;2022-07-05T04:54:39;5.60;;;4.53;;
9188;SDS011;34313;50.780;6.084;2022-07-05T04:57:04;5.17;;;4.50;;
9188;SDS011;34313;50.780;6.084;2022-07-05T04:59:29;10.03;;;5.50;;
9188;SDS011;34313;50.780;6.084;2022-07-05T05:01:55;7.03;;;5.10;;
9188;SDS011;34313;50.780;6.084;2022-07-05T05:04:20;5.70;;;5.20;;
9188;SDS011;34313;50.780;6.084;2022-07-05T05:06:46;5.07;;;3.70;;
9188;SDS011;34313;50.780;6.084;2022-07-05T05:09:11;4.93;;;3.40;;
9188;SDS011;34313;50.780;6.084;2022-07-05T05:11:37;2.97;;;2.17;;
9188;SDS011;34313;50.780;6.084;2022-07-05T05:14:02;3.60;;;2.70;;
9188;SDS011;34313;50.780;6.084;2022-07-05T05:16:27;2.53;;;2.33;;
9188;SDS011;34313;50.780;6.084;2022-07-05T05:18:53;2.53;;;2.10;;
9188;SDS011;34313;50.780;6.084;2022-07-05T05:21:18;2.70;;;2.25;;
9188;SDS011;34313;50.780;6.084;2022-07-05T05:23:43;5.13;;;2.22;;
9188;SDS011;34313;50.780;6.084;2022-07-05T05:26:09;4.63;;;2.47;;
9188;SDS011;34313;50.780;6.084;2022-07-05T05:28:34;3.75;;;2.92;;
9188;SDS011;34313;50.780;6.084;2022-07-05T05:30:59;7.93;;;4.90;;
9188;SDS011;34313;50.780;6.084;2022-07-05T05:33:25;5.28;;;3.50;;
9188;SDS011;34313;50.780;6.084;2022-07-05T05:35:50;11.27;;;3.60;;
9188;SDS011;34313;50.780;6.084;2022-07-05T05:38:16;4.30;;;3.90;;
9188;SDS011;34313;50.780;6.084;2022-07-05T05:40:41;4.82;;;4.43;;
9188;SDS011;34313;50.780;6.084;2022-07-05T05:43:09;4.65;;;4.18;;
9188;SDS011;34313;50.780;6.084;2022-07-05T05:45:34;4.63;;;2.55;;
9188;SDS011;34313;50.780;6.084;2022-07-05T05:48:00;4.97;;;4.00;;
9188;SDS011;34313;50.780;6.084;2022-07-05T05:50:26;4.38;;;2.53;;
9188;SDS011;34313;50.780;6.084;2022-07-05T05:52:55;3.13;;;2.83;;
9188;SDS011;34313;50.780;6.084;2022-07-05T05:55:21;3.90;;;1.95;;
9188;SDS011;34313;50.780;6.084;2022-07-05T05:57:47;3.20;;;2.08;;
9188;SDS011;34313;50.780;6.084;2022-07-05T06:00:13;3.45;;;1.75;;
9188;SDS011;34313;50.780;6.084;2022-07-05T06:02:40;2.67;;;1.95;;
9188;SDS011;34313;50.780;6.084;2022-07-05T06:05:06;2.00;;;1.70;;
9188;SDS011;34313;50.780;6.084;2022-07-05T06:07:42;4.57;;;2.40;;
9188;SDS011;34313;50.780;6.084;2022-07-05T06:10:16;2.05;;;1.75;;
9188;SDS011;34313;50.780;6.084;2022-07-05T06:12:43;2.22;;;1.55;;
9188;SDS011;34313;50.780;6.084;2022-07-05T06:15:09;3.28;;;1.80;;
9188;SDS011;34313;50.780;6.084;2022-07-05T06:17:35;3.58;;;2.22;;
9188;SDS011;34313;50.780;6.084;2022-07-05T06:20:03;2.70;;;1.58;;
9188;SDS011;34313;50.780;6.084;2022-07-05T06:22:33;4.70;;;2.20;;
9188;SDS011;34313;50.780;6.084;2022-07-05T06:24:58;5.50;;;2.22;;
9188;SDS011;34313;50.780;6.084;2022-07-05T06:27:23;2.85;;;1.80;;
9188;SDS011;34313;50.780;6.084;2022-07-05T06:29:49;3.78;;;2.20;;
9188;SDS011;34313;50.780;6.084;2022-07-05T06:32:14;4.78;;;2.35;;
9188;SDS011;34313;50.780;6.084;2022-07-05T06:34:39;3.55;;;2.42;;
9188;SDS011;34313;50.780;6.084;2022-07-05T06:37:05;4.20;;;2.50;;
9188;SDS011;34313;50.780;6.084;2022-07-05T06:39:30;3.75;;;2.75;;
9188;SDS011;34313;50.780;6.084;2022-07-05T06:41:56;6.50;;;3.03;;
9188;SDS011;34313;50.780;6.084;2022-07-05T06:44:21;3.60;;;2.85;;
9188;SDS011;34313;50.780;6.084;2022-07-05T06:46:46;2.67;;;2.05;;
9188;SDS011;34313;50.780;6.084;2022-07-05T06:49:11;3.55;;;1.98;;
9188;SDS011;34313;50.780;6.084;2022-07-05T06:51:37;5.97;;;2.15;;
9188;SDS011;34313;50.780;6.084;2022-07-05T06:54:02;4.57;;;2.00;;
9188;SDS011;34313;50.780;6.084;2022-07-05T06:56:28;3.25;;;2.00;;
9188;SDS011;34313;50.780;6.084;2022-07-05T06:58:53;4.28;;;2.83;;
9188;SDS011;34313;50.780;6.084;2022-07-05T07:01:18;1.90;;;1.80;;
9188;SDS011;34313;50.780;6.084;2022-07-05T07:03:44;3.75;;;2.30;;
9188;SDS011;34313;50.780;6.084;2022-07-05T07:06:09;5.03;;;2.90;;
9188;SDS011;34313;50.780;6.084;2022-07-05T07:08:34;4.32;;;2.50;;
9188;SDS011;34313;50.780;6.084;2022-07-05T07:11:18;2.70;;;2.40;;
9188;SDS011;34313;50.780;6.084;2022-07-05T07:13:43;5.43;;;2.70;;
9188;SDS011;34313;50.780;6.084;2022-07-05T07:16:09;3.65;;;2.25;;
9188;SDS011;34313;50.780;6.084;2022-07-05T07:18:34;5.05;;;2.50;;
9188;SDS011;34313;50.780;6.084;2022-07-05T07:21:00;6.63;;;3.88;;
9188;SDS011;34313;50.780;6.084;2022-07-05T07:23:26;3.10;;;2.80;;
9188;SDS011;34313;50.780;6.084;2022-07-05T07:25:51;3.60;;;2.65;;
9188;SDS011;34313;50.780;6.084;2022-07-05T07:28:16;6.65;;;3.55;;
9188;SDS011;34313;50.780;6.084;2022-07-05T07:30:42;4.38;;;3.10;;
9188;SDS011;34313;50.780;6.084;2022-07-05T07:33:07;4.80;;;2.88;;
9188;SDS011;34313;50.780;6.084;2022-07-05T07:35:33;3.97;;;2.67;;
9188;SDS011;34313;50.780;6.084;2022-07-05T07:37:58;4.47;;;3.10;;
9188;SDS011;34313;50.780;6.084;2022-07-05T07:40:23;4.10;;;3.70;;
9188;SDS011;34313;50.780;6.084;2022-07-05T07:42:49;7.72;;;3.03;;
9188;SDS011;34313;50.780;6.084;2022-07-05T07:45:14;9.80;;;3.67;;
9188;SDS011;34313;50.780;6.084;2022-07-05T07:47:39;4.85;;;2.72;;
9188;SDS011;34313;50.780;6.084;2022-07-05T07:50:05;11.95;;;2.65;;
9188;SDS011;34313;50.780;6.084;2022-07-05T07:52:31;3.38;;;2.90;;
9188;SDS011;34313;50.780;6.084;2022-07-05T07:54:58;3.95;;;3.38;;
9188;SDS011;34313;50.780;6.084;2022-07-05T07:57:24;3.33;;;2.20;;
9188;SDS011;34313;50.780;6.084;2022-07-05T07:59:49;3.50;;;2.90;;
9188;SDS011;34313;50.780;6.084;2022-07-05T08:02:15;6.78;;;2.50;;
9188;SDS011;34313;50.780;6.084;2022-07-05T08:04:41;3.70;;;2.10;;
9188;SDS011;34313;50.780;6.084;2022-07-05T08:07:06;4.80;;;2.95;;
9188;SDS011;34313;50.780;6.084;2022-07-05T08:09:31;5.38;;;3.33;;
9188;SDS011;34313;50.780;6.084;2022-07-05T08:11:57;3.05;;;2.85;;
9188;SDS011;34313;50.780;6.084;2022-07-05T08:14:22;2.40;;;2.20;;
9188;SDS011;34313;50.780;6.084;2022-07-05T08:16:48;5.05;;;2.08;;
9188;SDS011;34313;50.780;6.084;2022-07-05T08:19:14;4.35;;;2.90;;
9188;SDS011;34313;50.780;6.084;2022-07-05T08:21:59;2.53;;;1.98;;
9188;SDS011;34313;50.780;6.084;2022-07-05T08:24:25;3.30;;;2.60;;
9188;SDS011;34313;50.780;6.084;2022-07-05T08:26:50;1.67;;;1.58;;
9188;SDS011;34313;50.780;6.084;2022-07-05T08:29:16;2.72;;;1.90;;
9188;SDS011;34313;50.780;6.084;2022-07-05T08:34:08;6.68;;;1.90;;
9188;SDS011;34313;50.780;6.084;2022-07-05T08:36:35;2.08;;;1.98;;
9188;SDS011;34313;50.780;6.084;2022-07-05T08:39:00;4.55;;;2.47;;
9188;SDS011;34313;50.780;6.084;2022-07-05T08:41:26;3.72;;;2.13;;
9188;SDS011;34313;50.780;6.084;2022-07-05T08:43:54;3.58;;;2.00;;
9188;SDS011;34313;50.780;6.084;2022-07-05T08:46:22;5.13;;;2.33;;
9188;SDS011;34313;50.780;6.084;2022-07-05T08:48:50;6.70;;;1.98;;
9188;SDS011;34313;50.780;6.084;2022-07-05T08:51:20;4.05;;;1.80;;
9188;SDS011;34313;50.780;6.084;2022-07-05T08:53:48;2.13;;;1.60;;
9188;SDS011;34313;50.780;6.084;2022-07-05T08:56:14;3.83;;;1.70;;
9188;SDS011;34313;50.780;6.084;2022-07-05T08:58:40;3.20;;;1.50;;
9188;SDS011;34313;50.780;6.084;2022-07-05T09:01:07;3.22;;;2.03;;
9188;SDS011;34313;50.780;6.084;2022-07-05T09:03:42;2.17;;;1.98;;
9188;SDS011;34313;50.780;6.084;2022-07-05T09:06:10;3.90;;;2.28;;
9188;SDS011;34313;50.780;6.084;2022-07-05T09:08:38;2.58;;;2.10;;
9188;SDS011;34313;50.780;6.084;2022-07-05T09:11:14;3.30;;;1.85;;
9188;SDS011;34313;50.780;6.084;2022-07-05T09:13:47;3.83;;;1.98;;
9188;SDS011;34313;50.780;6.084;2022-07-05T09:16:14;3.33;;;1.60;;
9188;SDS011;34313;50.780;6.084;2022-07-05T09:18:40;5.43;;;1.80;;
9188;SDS011;34313;50.780;6.084;2022-07-05T09:21:19;5.43;;;2.10;;
9188;SDS011;34313;50.780;6.084;2022-07-05T09:23:53;3.42;;;1.70;;
9188;SDS011;34313;50.780;6.084;2022-07-05T09:29:01;2.25;;;1.70;;
9188;SDS011;34313;50.780;6.084;2022-07-05T09:31:32;3.05;;;1.52;;
9188;SDS011;34313;50.780;6.084;2022-07-05T09:34:12;4.38;;;1.75;;
9188;SDS011;34313;50.780;6.084;2022-07-05T09:36:58;2.28;;;1.60;;
9188;SDS011;34313;50.780;6.084;2022-07-05T09:45:00;5.78;;;1.85;;
9188;SDS011;34313;50.780;6.084;2022-07-05T09:47:28;2.53;;;1.70;;
9188;SDS011;34313;50.780;6.084;2022-07-05T09:49:55;3.45;;;1.52;;
9188;SDS011;34313;50.780;6.084;2022-07-05T09:52:25;2.70;;;1.25;;
9188;SDS011;34313;50.780;6.084;2022-07-05T09:57:34;2.80;;;1.58;;
9188;SDS011;34313;50.780;6.084;2022-07-05T10:00:10;3.30;;;1.65;;
9188;SDS011;34313;50.780;6.084;2022-07-05T10:07:48;4.33;;;1.37;;
9188;SDS011;34313;50.780;6.084;2022-07-05T10:12:43;3.30;;;1.50;;
9188;SDS011;34313;50.780;6.084;2022-07-05T10:15:10;3.43;;;1.73;;
9188;SDS011;34313;50.780;6.084;2022-07-05T10:17:39;2.20;;;1.60;;
9188;SDS011;34313;50.780;6.084;2022-07-05T10:20:49;3.07;;;1.47;;
9188;SDS011;34313;50.780;6.084;2022-07-05T10:23:09;3.57;;;1.77;;
9188;SDS011;34313;50.780;6.084;2022-07-05T10:25:39;3.10;;;1.50;;
9188;SDS011;34313;50.780;6.084;2022-07-05T10:28:07;2.80;;;1.70;;
9188;SDS011;34313;50.780;6.084;2022-07-05T10:30:33;3.70;;;1.63;;
9188;SDS011;34313;50.780;6.084;2022-07-05T10:33:03;3.93;;;2.27;;
9188;SDS011;34313;50.780;6.084;2022-07-05T10:35:30;3.50;;;1.60;;
9188;SDS011;34313;50.780;6.084;2022-07-05T10:37:56;2.80;;;1.73;;
9188;SDS011;34313;50.780;6.084;2022-07-05T10:40:23;5.47;;;1.87;;
9188;SDS011;34313;50.780;6.084;2022-07-05T10:42:51;2.37;;;1.60;;
9188;SDS011;34313;50.780;6.084;2022-07-05T10:45:26;10.30;;;1.80;;
9188;SDS011;34313;50.780;6.084;2022-07-05T11:03:41;2.73;;;1.30;;
9188;SDS011;34313;50.780;6.084;2022-07-05T11:06:12;3.73;;;1.60;;
9188;SDS011;34313;50.780;6.084;2022-07-05T11:11:31;3.07;;;1.50;;
9188;SDS011;34313;50.780;6.084;2022-07-05T11:13:58;4.73;;;2.40;;
9188;SDS011;34313;50.780;6.084;2022-07-05T11:16:34;2.67;;;1.57;;
9188;SDS011;34313;50.780;6.084;2022-07-05T11:19:07;2.37;;;1.83;;
9188;SDS011;34313;50.780;6.084;2022-07-05T11:21:37;3.70;;;2.10;;
9188;SDS011;34313;50.780;6.084;2022-07-05T11:24:37;3.17;;;1.23;;
9188;SDS011;34313;50.780;6.084;2022-07-05T11:26:57;2.67;;;1.60;;
9188;SDS011;34313;50.780;6.084;2022-07-05T11:32:21;3.30;;;1.80;;
9188;SDS011;34313;50.780;6.084;2022-07-05T11:34:49;3.17;;;1.67;;
9188;SDS011;34313;50.780;6.084;2022-07-05T11:37:17;3.33;;;1.80;;
9188;SDS011;34313;50.780;6.084;2022-07-05T11:42:35;4.77;;;1.90;;
9188;SDS011;34313;50.780;6.084;2022-07-05T11:45:03;3.73;;;1.97;;
9188;SDS011;34313;50.780;6.084;2022-07-05T11:47:30;6.87;;;2.10;;
9188;SDS011;34313;50.780;6.084;2022-07-05T11:49:56;2.00;;;1.37;;
9188;SDS011;34313;50.780;6.084;2022-07-05T11:52:29;3.50;;;1.37;;
9188;SDS011;34313;50.780;6.084;2022-07-05T11:54:56;3.47;;;1.80;;
9188;SDS011;34313;50.780;6.084;2022-07-05T11:57:22;1.60;;;1.37;;
9188;SDS011;34313;50.780;6.084;2022-07-05T11:59:49;3.07;;;1.60;;
9188;SDS011;34313;50.780;6.084;2022-07-05T12:02:15;1.57;;;1.30;;
9188;SDS011;34313;50.780;6.084;2022-07-05T12:04:46;9.00;;;1.77;;
9188;SDS011;34313;50.780;6.084;2022-07-05T12:07:23;3.00;;;1.50;;
9188;SDS011;34313;50.780;6.084;2022-07-05T12:09:56;3.80;;;1.50;;
9188;SDS011;34313;50.780;6.084;2022-07-05T12:12:41;4.67;;;1.40;;
9188;SDS011;34313;50.780;6.084;2022-07-05T12:15:08;1.70;;;1.50;;
9188;SDS011;34313;50.780;6.084;2022-07-05T12:17:42;1.90;;;1.50;;
9188;SDS011;34313;50.780;6.084;2022-07-05T12:20:09;2.70;;;1.40;;
9188;SDS011;34313;50.780;6.084;2022-07-05T12:22:38;2.10;;;1.57;;
9188;SDS011;34313;50.780;6.084;2022-07-05T12:25:05;1.97;;;1.47;;
9188;SDS011;34313;50.780;6.084;2022-07-05T12:27:36;2.70;;;1.10;;
9188;SDS011;34313;50.780;6.084;2022-07-05T12:30:03;3.33;;;1.60;;
9188;SDS011;34313;50.780;6.084;2022-07-05T12:32:29;3.80;;;1.80;;
9188;SDS011;34313;50.780;6.084;2022-07-05T12:34:56;2.93;;;1.30;;
9188;SDS011;34313;50.780;6.084;2022-07-05T12:37:27;1.43;;;1.23;;
9188;SDS011;34313;50.780;6.084;2022-07-05T12:40:06;2.10;;;1.40;;
9188;SDS011;34313;50.780;6.084;2022-07-05T12:42:36;1.93;;;1.30;;
9188;SDS011;34313;50.780;6.084;2022-07-05T12:45:08;3.20;;;1.53;;
9188;SDS011;34313;50.780;6.084;2022-07-05T12:47:47;1.90;;;1.20;;
9188;SDS011;34313;50.780;6.084;2022-07-05T12:50:18;1.40;;;1.30;;
9188;SDS011;34313;50.780;6.084;2022-07-05T12:53:06;1.83;;;1.47;;
9188;SDS011;34313;50.780;6.084;2022-07-05T12:56:14;4.43;;;1.80;;
9188;SDS011;34313;50.780;6.084;2022-07-05T12:58:58;2.13;;;1.40;;
9188;SDS011;34313;50.780;6.084;2022-07-05T13:06:49;2.00;;;1.53;;
9188;SDS011;34313;50.780;6.084;2022-07-05T13:12:03;4.17;;;1.70;;
9188;SDS011;34313;50.780;6.084;2022-07-05T13:14:30;3.47;;;1.60;;
9188;SDS011;34313;50.780;6.084;2022-07-05T13:16:56;3.03;;;1.60;;
9188;SDS011;34313;50.780;6.084;2022-07-05T13:19:21;1.40;;;1.30;;
9188;SDS011;34313;50.780;6.084;2022-07-05T13:21:46;2.77;;;1.43;;
9188;SDS011;34313;50.780;6.084;2022-07-05T13:24:12;3.10;;;1.67;;
9188;SDS011;34313;50.780;6.084;2022-07-05T13:26:37;3.30;;;1.87;;
9188;SDS011;34313;50.780;6.084;2022-07-05T13:29:03;1.73;;;1.37;;
9188;SDS011;34313;50.780;6.084;2022-07-05T13:31:28;2.57;;;1.80;;
9188;SDS011;34313;50.780;6.084;2022-07-05T13:33:55;5.10;;;1.57;;
9188;SDS011;34313;50.780;6.084;2022-07-05T13:36:21;6.00;;;2.30;;
9188;SDS011;34313;50.780;6.084;2022-07-05T13:38:47;3.50;;;1.60;;
9188;SDS011;34313;50.780;6.084;2022-07-05T13:41:12;3.87;;;1.43;;
9188;SDS011;34313;50.780;6.084;2022-07-05T13:43:37;3.27;;;1.40;;
9188;SDS011;34313;50.780;6.084;2022-07-05T13:46:04;2.73;;;1.30;;
9188;SDS011;34313;50.780;6.084;2022-07-05T13:48:30;3.13;;;1.90;;
9188;SDS011;34313;50.780;6.084;2022-07-05T13:50:55;2.33;;;1.60;;
9188;SDS011;34313;50.780;6.084;2022-07-05T13:53:20;4.30;;;1.50;;
9188;SDS011;34313;50.780;6.084;2022-07-05T13:55:46;3.43;;;1.70;;
9188;SDS011;34313;50.780;6.084;2022-07-05T13:58:11;1.40;;;1.30;;
9188;SDS011;34313;50.780;6.084;2022-07-05T14:00:37;5.63;;;1.50;;
9188;SDS011;34313;50.780;6.084;2022-07-05T14:03:02;2.30;;;1.50;;
9188;SDS011;34313;50.780;6.084;2022-07-05T14:05:27;1.60;;;1.20;;
9188;SDS011;34313;50.780;6.084;2022-07-05T14:07:53;3.10;;;1.40;;
9188;SDS011;34313;50.780;6.084;2022-07-05T14:10:18;1.77;;;1.30;;
9188;SDS011;34313;50.780;6.084;2022-07-05T14:12:44;2.47;;;1.23;;
9188;SDS011;34313;50.780;6.084;2022-07-05T14:15:09;1.43;;;1.33;;
9188;SDS011;34313;50.780;6.084;2022-07-05T14:17:35;2.63;;;1.53;;
9188;SDS011;34313;50.780;6.084;2022-07-05T14:20:00;3.27;;;1.60;;
9188;SDS011;34313;50.780;6.084;2022-07-05T14:22:26;6.40;;;1.77;;
9188;SDS011;34313;50.780;6.084;2022-07-05T14:24:51;2.30;;;1.33;;
9188;SDS011;34313;50.780;6.084;2022-07-05T14:27:16;3.47;;;1.30;;
9188;SDS011;34313;50.780;6.084;2022-07-05T14:29:42;7.47;;;1.50;;
9188;SDS011;34313;50.780;6.084;2022-07-05T14:32:07;1.30;;;1.20;;
9188;SDS011;34313;50.780;6.084;2022-07-05T14:34:33;2.67;;;1.60;;
9188;SDS011;34313;50.780;6.084;2022-07-05T14:36:59;1.93;;;1.50;;
9188;SDS011;34313;50.780;6.084;2022-07-05T14:39:24;3.10;;;1.27;;
9188;SDS011;34313;50.780;6.084;2022-07-05T14:41:50;3.73;;;1.50;;
9188;SDS011;34313;50.780;6.084;2022-07-05T14:44:16;1.93;;;1.50;;
9188;SDS011;34313;50.780;6.084;2022-07-05T14:46:42;3.23;;;1.63;;
9188;SDS011;34313;50.780;6.084;2022-07-05T14:49:07;2.77;;;1.50;;
9188;SDS011;34313;50.780;6.084;2022-07-05T14:51:33;3.53;;;1.63;;
9188;SDS011;34313;50.780;6.084;2022-07-05T14:53:58;4.00;;;2.07;;
9188;SDS011;34313;50.780;6.084;2022-07-05T14:56:24;4.37;;;1.60;;
9188;SDS011;34313;50.780;6.084;2022-07-05T14:58:49;3.57;;;1.40;;
9188;SDS011;34313;50.780;6.084;2022-07-05T15:01:14;3.00;;;1.50;;
9188;SDS011;34313;50.780;6.084;2022-07-05T15:03:40;3.50;;;1.30;;
9188;SDS011;34313;50.780;6.084;2022-07-05T15:06:06;1.90;;;1.27;;
9188;SDS011;34313;50.780;6.084;2022-07-05T15:08:31;2.93;;;1.37;;
9188;SDS011;34313;50.780;6.084;2022-07-05T15:10:57;4.60;;;1.43;;
9188;SDS011;34313;50.780;6.084;2022-07-05T15:13:24;3.80;;;1.93;;
9188;SDS011;34313;50.780;6.084;2022-07-05T15:15:50;1.40;;;1.30;;
9188;SDS011;34313;50.780;6.084;2022-07-05T15:18:16;4.00;;;1.60;;
9188;SDS011;34313;50.780;6.084;2022-07-05T15:20:41;2.80;;;1.90;;
9188;SDS011;34313;50.780;6.084;2022-07-05T15:23:06;2.53;;;1.80;;
9188;SDS011;34313;50.780;6.084;2022-07-05T15:25:32;3.37;;;1.40;;
9188;SDS011;34313;50.780;6.084;2022-07-05T15:27:57;2.60;;;1.30;;
9188;SDS011;34313;50.780;6.084;2022-07-05T15:30:23;6.63;;;2.23;;
9188;SDS011;34313;50.780;6.084;2022-07-05T15:32:48;5.20;;;1.80;;
9188;SDS011;34313;50.780;6.084;2022-07-05T15:35:14;3.83;;;2.17;;
9188;SDS011;34313;50.780;6.084;2022-07-05T15:37:42;3.43;;;1.60;;
9188;SDS011;34313;50.780;6.084;2022-07-05T15:40:09;5.50;;;2.10;;
9188;SDS011;34313;50.780;6.084;2022-07-05T15:42:35;4.20;;;1.90;;
9188;SDS011;34313;50.780;6.084;2022-07-05T15:45:00;3.77;;;1.80;;
9188;SDS011;34313;50.780;6.084;2022-07-05T15:47:25;8.30;;;2.43;;
9188;SDS011;34313;50.780;6.084;2022-07-05T15:49:52;7.97;;;2.57;;
9188;SDS011;34313;50.780;6.084;2022-07-05T15:52:18;3.90;;;2.13;;
9188;SDS011;34313;50.780;6.084;2022-07-05T15:54:44;4.40;;;1.80;;